Time;durP1;ratioP1;P1;durP2;ratioP2;P2;SDS_P1;SDS_P2;PMS_P1;PMS_P2;Temp;Humidity;BMP_temperature;BMP_pressure;BME280_temperature;BME280_humidity;BME280_pressure;Samples;Min_cycle;Max_cycle;Signal;HPM_P1;HPM_P2
2023/09/24 00:01:00;;;;;;;;;;;17.30;82.80;;;17.44;50.53;99401.03;5047656;27;122704;-91
2023/09/24 00:03:26;;;;;;;;;;;17.20;82.80;;;17.43;50.60;99393.78;5040423;27;114392;-91
2023/09/24 00:05:52;;;;;;;;;;;17.20;83.00;;;17.43;50.73;99398.56;5028603;27;111802;-91
2023/09/24 00:08:19;;;;;;;;;;;17.20;83.10;;;17.43;50.70;99404.16;5033965;27;124374;-91
2023/09/24 00:10:55;;;;;;;;;;;17.20;83.30;;;17.41;50.87;99409.28;5026831;28;124794;-91
2023/09/24 00:13:21;;;;;;;;;;;19.30;85.40;;;17.37;50.96;99411.13;5025847;28;114596;-90
2023/09/24 00:15:52;;;;;;;;;;;17.10;83.40;;;17.33;50.85;99408.19;5026318;27;113693;-90
2023/09/24 00:18:19;;;;;;;;;;;17.10;83.50;;;17.30;51.14;99406.09;5025267;28;124563;-93
2023/09/24 00:20:46;;;;;;;;;;;17.10;83.80;;;17.27;51.29;99417.13;5049176;27;124227;-90
2023/09/24 00:23:14;;;;;;;;;;;17.10;84.00;;;17.27;51.24;99422.69;5021563;27;115705;-91
2023/09/24 00:25:41;;;;;;;;;;;17.00;84.10;;;17.23;51.33;99420.59;5038616;27;114629;-90
2023/09/24 00:28:12;;;;;;;;;;;17.00;84.30;;;17.20;51.42;99423.28;5047379;27;123232;-90
2023/09/24 00:30:42;;;;;;;;;;;17.00;84.30;;;17.16;51.31;99423.13;5059393;27;123723;-91
2023/09/24 00:33:14;;;;;;;;;;;17.00;84.40;;;17.14;51.48;99419.03;5029293;27;113634;-91
2023/09/24 00:35:46;;;;;;;;;;;16.90;84.50;;;17.10;51.55;99427.28;5017290;28;113441;-91
2023/09/24 00:38:13;;;;;;;;;;;16.90;84.80;;;17.06;51.88;99423.56;5022868;27;123521;-93
2023/09/24 00:40:43;;;;;;;;;;;16.90;85.00;;;17.07;52.04;99429.94;5027134;28;124205;-92
2023/09/24 00:43:28;;;;;;;;;;;16.90;85.20;;;17.03;51.85;99423.41;5026153;27;114348;-93
2023/09/24 00:45:59;;;;;;;;;;;16.80;85.20;;;16.99;52.01;99417.69;5034573;27;113890;-92
2023/09/24 00:48:29;;;;;;;;;;;16.80;85.30;;;16.96;52.07;99418.38;5030882;27;123731;-92
2023/09/24 00:50:57;;;;;;;;;;;16.70;85.50;;;16.94;52.22;99437.41;5030147;27;124112;-92
2023/09/24 00:53:27;;;;;;;;;;;16.80;85.80;;;16.94;52.20;99426.25;5032309;27;114474;-91
2023/09/24 00:55:55;;;;;;;;;;;16.80;85.90;;;16.93;52.30;99428.22;5028807;27;113673;-91
2023/09/24 00:58:25;;;;;;;;;;;16.70;86.10;;;16.91;52.59;99433.34;5031921;27;124493;-92
2023/09/24 01:00:53;;;;;;;;;;;16.70;86.20;;;16.87;52.62;99431.56;5014862;28;124801;-91
2023/09/24 01:03:22;;;;;;;;;;;16.60;86.20;;;16.84;52.40;99435.03;5028976;27;114774;-91
2023/09/24 01:05:52;;;;;;;;;;;16.60;86.40;;;16.83;52.78;99436.19;5014995;28;113047;-91
2023/09/24 01:08:23;;;;;;;;;;;16.60;86.70;;;16.81;53.09;99441.28;5029386;27;124330;-92
2023/09/24 01:10:50;;;;;;;;;;;16.60;86.90;;;16.78;52.96;99457.53;5047293;27;122954;-93
2023/09/24 01:13:22;;;;;;;;;;;16.90;87.40;;;16.76;53.08;99459.00;5052065;27;115123;-92
2023/09/24 01:15:52;;;;;;;;;;;16.60;87.30;;;16.75;52.94;99463.78;5030256;28;114594;-94
2023/09/24 01:18:19;;;;;;;;;;;16.50;87.40;;;16.75;53.19;99458.19;5029364;27;124761;-93
2023/09/24 01:20:48;;;;;;;;;;;16.50;87.50;;;16.73;53.39;99460.50;5039869;27;123183;-92
2023/09/24 01:23:15;;;;;;;;;;;16.50;87.80;;;16.73;53.44;99466.06;5038577;27;113676;-91
2023/09/24 01:25:43;;;;;;;;;;;16.50;87.90;;;16.71;53.59;99448.03;5021881;27;114267;-91
2023/09/24 01:28:14;;;;;;;;;;;16.50;88.00;;;16.69;53.73;99459.56;5032437;27;124875;-91
2023/09/24 01:30:40;;;;;;;;;;;16.50;88.10;;;16.67;53.59;99452.66;5036688;27;123258;-92
2023/09/24 01:33:07;;;;;;;;;;;16.40;88.30;;;16.66;53.69;99460.22;5041687;27;113744;-92
2023/09/24 01:35:35;;;;;;;;;;;16.40;88.40;;;16.65;53.66;99450.19;5012281;27;111436;-91
2023/09/24 01:38:05;;;;;;;;;;;16.40;88.60;;;16.64;53.88;99445.78;5028185;27;124242;-91
2023/09/24 01:40:37;;;;;;;;;;;16.40;88.70;;;16.61;53.79;99452.06;5029187;27;124170;-92
2023/09/24 01:43:09;;;;;;;;;;;16.40;88.90;;;16.59;53.81;99457.13;5030746;27;114501;-91
2023/09/24 01:45:40;;;;;;;;;;;16.40;89.00;;;16.57;53.93;99456.66;5029558;27;113705;-91
2023/09/24 01:48:07;;;;;;;;;;;16.30;89.00;;;16.56;54.11;99461.41;5029539;27;124913;-91
2023/09/24 01:50:35;;;;;;;;;;;16.30;89.20;;;16.57;53.98;99451.06;5027403;27;123193;-92
2023/09/24 01:53:01;;;;;;;;;;;16.30;89.40;;;16.56;54.19;99461.41;5012911;27;113816;-92
2023/09/24 01:55:28;;;;;;;;;;;16.30;89.50;;;16.56;54.19;99450.25;5036463;27;113665;-92
2023/09/24 01:58:01;;;;;;;;;;;16.30;89.60;;;16.56;54.20;99452.25;5032613;27;123481;-90
2023/09/24 02:00:27;;;;;;;;;;;16.30;89.70;;;16.55;54.18;99464.56;5029123;27;123345;-91
2023/09/24 02:02:59;;;;;;;;;;;16.30;89.80;;;16.54;54.20;99460.13;5020893;27;115414;-92
2023/09/24 02:05:32;;;;;;;;;;;16.30;90.00;;;16.54;54.52;99457.31;5020224;27;114852;-92
2023/09/24 02:07:59;;;;;;;;;;;16.30;90.00;;;16.52;54.43;99459.63;5033604;27;123350;-91
2023/09/24 02:10:27;;;;;;;;;;;16.20;90.00;;;16.51;54.64;99455.22;5031194;27;123814;-92
2023/09/24 02:12:55;;;;;;;;;;;16.20;90.00;;;16.49;54.35;99454.72;5031080;27;114593;-92
2023/09/24 02:15:25;;;;;;;;;;;16.20;90.00;;;16.46;54.49;99458.19;5029738;27;113787;-92
2023/09/24 02:17:51;;;;;;;;;;;16.20;90.10;;;16.45;54.45;99460.16;5028436;27;123485;-93
2023/09/24 02:20:27;;;;;;;;;;;16.20;90.10;;;16.44;54.72;99463.28;5032911;27;122435;-91
2023/09/24 02:22:56;;;;;;;;;;;16.20;90.10;;;16.41;54.71;99469.53;5027873;27;113832;-91
2023/09/24 02:25:32;;;;;;;;;;;16.20;90.20;;;16.40;54.66;99473.47;5022024;27;114460;-91
2023/09/24 02:27:59;;;;;;;;;;;16.10;90.20;;;16.39;54.92;99477.41;5028622;28;124824;-92
2023/09/24 02:30:28;;;;;;;;;;;16.10;90.30;;;16.31;54.91;99471.56;5037351;27;124023;-92
2023/09/24 02:32:55;;;;;;;;;;;16.10;90.30;;;16.28;54.85;99479.75;5037977;27;114574;-91
2023/09/24 02:35:24;;;;;;;;;;;16.10;90.30;;;16.26;55.17;99480.09;5029576;27;113555;-91
2023/09/24 02:37:51;;;;;;;;;;;16.10;90.30;;;16.25;54.88;99480.41;5059222;27;122773;-91
2023/09/24 02:42:48;;;;;;;;;;;16.00;90.40;;;16.22;55.04;99481.09;5032358;27;115231;-92
2023/09/24 02:45:15;;;;;;;;;;;16.00;90.40;;;16.20;55.38;99487.03;5033065;27;113272;-92
2023/09/24 02:47:42;;;;;;;;;;;16.00;90.50;;;16.17;55.18;99482.09;5017776;28;123520;-93
2023/09/24 02:50:12;;;;;;;;;;;16.00;90.50;;;16.15;55.17;99484.41;5029694;28;123990;-91
2023/09/24 02:52:43;;;;;;;;;;;16.00;90.50;;;16.15;55.11;99489.97;5028449;27;115411;-93
2023/09/24 02:55:13;;;;;;;;;;;15.90;90.50;;;16.14;55.23;99488.31;5030479;28;115281;-92
2023/09/24 02:57:40;;;;;;;;;;;15.90;90.60;;;16.12;54.89;99488.69;5029045;27;124417;-93
2023/09/24 03:00:11;;;;;;;;;;;15.90;90.60;;;16.07;55.18;99483.28;5031615;27;123260;-91
2023/09/24 03:02:38;;;;;;;;;;;15.90;90.60;;;15.99;55.53;99483.31;5030415;27;113945;-92
2023/09/24 03:05:12;;;;;;;;;;;15.80;90.60;;;15.88;55.44;99494.81;5030247;27;112942;-91
2023/09/24 03:07:44;;;;;;;;;;;15.70;90.60;;;15.82;55.39;99493.31;5028643;27;123591;-91
2023/09/24 03:10:13;;;;;;;;;;;15.60;90.60;;;15.80;55.58;99498.44;5028513;27;123990;-93
2023/09/24 03:12:40;;;;;;;;;;;15.60;90.60;;;15.80;55.68;99506.78;5027251;27;114447;-93
2023/09/24 03:15:10;;;;;;;;;;;15.60;90.70;;;15.78;55.62;99509.06;5037774;27;113006;-92
2023/09/24 03:17:37;;;;;;;;;;;15.60;90.70;;;15.79;55.59;99507.09;5062431;27;123263;-92
2023/09/24 03:20:14;;;;;;;;;;;15.60;90.80;;;15.77;55.91;99509.38;5029240;27;123069;-93
2023/09/24 03:22:49;;;;;;;;;;;15.60;91.10;;;15.79;55.81;99521.84;5024667;27;114720;-92
2023/09/24 03:25:17;;;;;;;;;;;15.60;90.90;;;15.76;56.02;99519.72;5017601;27;112632;-92
2023/09/24 03:27:45;;;;;;;;;;;15.60;91.10;;;15.73;56.46;99517.59;5029822;27;124588;-90
2023/09/24 03:30:14;;;;;;;;;;;15.50;91.20;;;15.67;56.62;99527.25;5027700;27;124578;-93
2023/09/24 03:32:41;;;;;;;;;;;15.40;91.40;;;15.55;57.48;99536.25;5028339;28;113691;-93
2023/09/24 03:35:10;;;;;;;;;;;15.30;91.70;;;15.38;57.83;99531.50;5030949;27;113732;-92
2023/09/24 03:37:37;;;;;;;;;;;15.20;91.90;;;15.27;57.59;99541.31;5028797;27;125096;-92
2023/09/24 03:40:06;;;;;;;;;;;15.10;91.80;;;15.20;58.10;99546.53;5015919;27;123299;-92
2023/09/24 03:42:32;;;;;;;;;;;15.10;92.10;;;15.13;58.29;99544.25;5034475;27;114751;-90
2023/09/24 03:45:00;;;;;;;;;;;15.00;92.10;;;15.08;58.55;99541.63;5031921;27;114788;-92
2023/09/24 03:47:26;;;;;;;;;;;14.90;92.10;;;15.08;58.13;99538.03;5033037;28;124101;-93
2023/09/24 03:49:53;;;;;;;;;;;15.00;92.20;;;15.13;58.10;99540.66;5030018;28;124410;-92
2023/09/24 03:52:21;;;;;;;;;;;15.00;92.70;;;15.15;58.49;99543.91;5034224;27;113296;-92
2023/09/24 03:54:50;;;;;;;;;;;13.30;91.70;;;15.15;58.24;99553.09;5032491;27;113868;-93
2023/09/24 03:57:16;;;;;;;;;;;15.00;92.30;;;15.15;58.31;99557.81;5026827;27;125521;-90
2023/09/24 03:59:43;;;;;;;;;;;14.90;92.40;;;15.14;58.39;99545.06;5040194;27;124061;-90
2023/09/24 04:02:09;;;;;;;;;;;15.00;92.40;;;15.17;58.27;99555.53;5057144;27;114595;-92
2023/09/24 04:04:37;;;;;;;;;;;15.00;92.40;;;15.16;58.20;99563.06;5031902;27;113270;-92
2023/09/24 04:07:04;;;;;;;;;;;16.50;93.00;;;15.20;58.00;99566.03;5029924;27;124156;-92
2023/09/24 04:09:34;;;;;;;;;;;15.00;92.40;;;15.21;58.16;99582.41;5061412;27;124174;-94
2023/09/24 04:12:04;;;;;;;;;;;14.90;92.40;;;15.23;58.05;99570.94;5030016;27;114838;-92
2023/09/24 04:14:31;;;;;;;;;;;15.00;92.40;;;15.25;58.09;99575.03;5033543;27;113412;-92
2023/09/24 04:16:57;;;;;;;;;;;15.00;92.50;;;15.25;57.97;99582.56;5028117;27;124482;-92
2023/09/24 04:19:24;;;;;;;;;;;15.00;92.40;;;15.26;57.99;99573.09;5027394;27;124443;-92
2023/09/24 04:21:52;;;;;;;;;;;15.00;92.40;;;15.24;57.94;99578.16;5029228;27;114152;-93
2023/09/24 04:24:19;;;;;;;;;;;15.00;92.40;;;15.24;57.91;99589.31;5039626;27;113825;-91
2023/09/24 04:26:46;;;;;;;;;;;15.00;92.40;;;15.25;57.89;99594.53;5023468;28;124378;-91
2023/09/24 04:29:13;;;;;;;;;;;15.00;92.40;;;15.24;57.61;99594.88;5026113;27;124412;-92
2023/09/24 04:31:39;;;;;;;;;;;15.00;92.30;;;15.25;57.74;99602.06;5030324;27;115192;-91
2023/09/24 04:34:05;;;;;;;;;;;15.00;92.30;;;15.23;57.70;99596.00;5028833;28;114799;-91
2023/09/24 04:36:34;;;;;;;;;;;15.00;92.30;;;15.23;57.71;99609.91;5027494;27;124122;-92
2023/09/24 04:39:05;;;;;;;;;;;15.00;92.30;;;15.21;57.59;99601.09;5029673;27;122652;-91
2023/09/24 04:41:31;;;;;;;;;;;15.00;92.20;;;15.20;57.46;99596.66;5027819;27;115055;-90
2023/09/24 04:43:57;;;;;;;;;;;15.00;92.20;;;15.18;57.64;99596.19;5028167;27;113826;-91
2023/09/24 04:46:25;;;;;;;;;;;15.00;92.20;;;15.18;57.52;99601.75;5027609;27;124499;-91
2023/09/24 04:48:55;;;;;;;;;;;15.00;92.30;;;15.19;57.61;99600.59;5043033;27;123941;-91
2023/09/24 04:51:21;;;;;;;;;;;14.90;92.20;;;15.18;57.61;99612.88;5027352;27;114486;-91
2023/09/24 04:53:49;;;;;;;;;;;14.90;92.20;;;15.18;57.36;99621.22;5014706;27;113721;-92
2023/09/24 04:56:16;;;;;;;;;;;14.90;92.20;;;15.17;57.61;99614.81;5027176;27;123517;-91
2023/09/24 04:58:43;;;;;;;;;;;14.90;92.20;;;15.18;57.47;99610.09;5027329;27;124012;-92
2023/09/24 05:01:09;;;;;;;;;;;14.90;92.20;;;15.16;57.61;99615.97;5026140;28;114361;-92
2023/09/24 05:03:37;;;;;;;;;;;14.90;92.20;;;15.14;57.36;99618.25;5028146;27;113745;-91
2023/09/24 05:06:04;;;;;;;;;;;14.90;92.20;;;15.13;57.37;99618.59;5028687;27;124066;-91
2023/09/24 05:08:32;;;;;;;;;;;14.90;92.20;;;15.12;57.46;99626.09;5026050;27;123336;-93
2023/09/24 05:10:59;;;;;;;;;;;14.80;92.10;;;15.11;57.30;99621.69;5011907;28;113363;-91
2023/09/24 05:13:25;;;;;;;;;;;14.80;92.10;;;15.13;57.34;99635.28;5030491;27;114022;-92
2023/09/24 05:15:54;;;;;;;;;;;14.80;92.20;;;15.13;57.33;99630.53;5027210;27;124325;-91
2023/09/24 05:18:21;;;;;;;;;;;14.90;92.20;;;15.12;57.26;99628.88;5059690;27;124006;-93
2023/09/24 05:20:47;;;;;;;;;;;14.90;92.20;;;15.12;57.31;99634.44;5029018;27;115779;-92
2023/09/24 05:23:16;;;;;;;;;;;14.80;92.10;;;15.11;57.58;99630.03;5033451;27;114556;-91
2023/09/24 05:25:42;;;;;;;;;;;14.80;92.10;;;15.09;57.11;99632.31;5036648;27;122576;-92
2023/09/24 05:28:09;;;;;;;;;;;13.90;91.70;;;15.10;57.24;99638.69;5027707;28;123823;-93
2023/09/24 05:30:38;;;;;;;;;;;14.80;92.10;;;15.09;57.13;99637.06;5028023;27;115739;-91
2023/09/24 05:33:04;;;;;;;;;;;14.80;92.10;;;15.09;57.10;99649.00;5027537;27;113613;-91
2023/09/24 05:35:31;;;;;;;;;;;14.80;92.10;;;15.08;57.03;99644.59;5029580;27;123480;-92
2023/09/24 05:37:58;;;;;;;;;;;14.80;92.10;;;15.09;57.30;99643.44;5019898;27;123873;-92
2023/09/24 05:40:27;;;;;;;;;;;14.80;92.10;;;15.08;57.13;99641.00;5039260;27;114121;-92
2023/09/24 05:42:53;;;;;;;;;;;14.80;92.00;;;15.05;57.00;99644.44;5042865;27;114913;-92
2023/09/24 05:45:19;;;;;;;;;;;14.80;92.00;;;15.04;56.79;99640.81;5040565;27;124512;-92
2023/09/24 05:47:46;;;;;;;;;;;14.80;91.90;;;15.06;56.95;99646.06;5046508;27;123796;-91
2023/09/24 05:50:12;;;;;;;;;;;14.80;91.90;;;15.11;56.86;99645.91;5038251;27;114401;-91
2023/09/24 05:52:38;;;;;;;;;;;14.80;92.00;;;15.12;56.75;99647.53;5060768;27;113246;-93
2023/09/24 05:55:06;;;;;;;;;;;14.80;91.90;;;15.14;56.75;99648.88;5046262;27;124226;-92
2023/09/24 05:57:32;;;;;;;;;;;14.80;91.90;;;15.15;56.67;99644.13;5038110;27;123845;-93
2023/09/24 05:59:59;;;;;;;;;;;14.80;91.90;;;15.14;56.72;99645.25;5045107;27;114401;-93
2023/09/24 06:02:25;;;;;;;;;;;14.80;91.80;;;15.13;56.74;99640.84;5040095;27;113472;-93
2023/09/24 06:04:54;;;;;;;;;;;14.90;91.80;;;15.13;56.42;99641.66;5037441;27;123262;-91
2023/09/24 06:07:20;;;;;;;;;;;14.80;91.70;;;15.13;56.44;99646.41;5046983;27;123643;-91
2023/09/24 06:09:47;;;;;;;;;;;14.90;91.70;;;15.11;56.28;99651.47;5045314;27;115909;-92
2023/09/24 06:12:17;;;;;;;;;;;14.80;91.60;;;15.07;56.39;99656.88;5029048;27;114520;-91
2023/09/24 06:14:43;;;;;;;;;;;14.80;91.60;;;15.12;56.26;99664.25;5033766;27;124621;-92
2023/09/24 06:17:10;;;;;;;;;;;14.80;91.60;;;15.09;56.09;99662.09;5067271;27;123696;-92
2023/09/24 06:19:36;;;;;;;;;;;14.80;91.50;;;15.08;56.17;99669.66;5043473;27;113753;-92
2023/09/24 06:22:02;;;;;;;;;;;14.90;91.50;;;15.09;56.16;99662.09;5050922;27;113740;-91
2023/09/24 06:24:29;;;;;;;;;;;14.90;91.50;;;15.10;56.15;99672.09;5044484;27;124687;-93
2023/09/24 06:26:55;;;;;;;;;;;14.90;91.50;;;15.11;56.17;99666.22;5050924;27;123572;-92
2023/09/24 06:29:22;;;;;;;;;;;14.90;91.50;;;15.16;56.04;99665.25;5065407;27;112704;-92
2023/09/24 06:31:50;;;;;;;;;;;14.90;91.80;;;15.27;56.09;99671.34;5060548;27;113816;-92
2023/09/24 06:34:20;;;;;;;;;;;15.00;91.50;;;15.33;55.95;99676.44;5059446;27;122371;-90
2023/09/24 06:36:46;;;;;;;;;;;15.00;91.40;;;15.36;55.84;99670.22;5057461;27;125819;-91
2023/09/24 06:39:15;;;;;;;;;;;15.10;91.40;;;15.37;55.74;99671.06;5055057;27;114939;-90
2023/09/24 06:41:41;;;;;;;;;;;15.10;91.40;;;15.42;55.87;99676.47;5054142;27;113680;-93
2023/09/24 06:44:09;;;;;;;;;;;15.10;91.40;;;15.50;55.74;99681.25;5048264;27;123743;-92
2023/09/24 06:46:35;;;;;;;;;;;15.20;91.40;;;15.57;55.71;99664.06;5025713;27;123014;-93
2023/09/24 06:49:02;;;;;;;;;;;15.20;91.40;;;15.65;55.62;99675.22;5044197;27;113575;-92
2023/09/24 06:51:28;;;;;;;;;;;15.30;91.50;;;15.71;55.65;99677.88;5030004;27;113940;-92
2023/09/24 06:53:55;;;;;;;;;;;15.30;91.50;;;15.74;55.90;99674.44;5025159;27;125530;-93
2023/09/24 06:56:21;;;;;;;;;;;15.30;91.60;;;15.75;55.91;99682.47;5031555;27;124107;-93
2023/09/24 06:58:48;;;;;;;;;;;15.40;91.70;;;15.78;55.96;99689.38;5034305;27;115074;-93
2023/09/24 07:01:16;;;;;;;;;;;15.30;91.80;;;15.80;56.20;99681.53;5036007;27;114617;-92
2023/09/24 07:03:42;;;;;;;;;;;15.30;91.90;;;15.85;56.06;99676.59;5037970;27;123125;-92
2023/09/24 07:06:09;;;;;;;;;;;15.40;92.00;;;15.85;56.44;99684.13;5041805;27;124614;-92
2023/09/24 07:08:35;;;;;;;;;;;15.40;92.00;;;15.88;56.45;99677.91;5037610;27;114617;-93
2023/09/24 07:11:19;;;;;;;;;;;15.40;92.10;;;15.87;56.27;99681.84;5039308;27;113963;-92
2023/09/24 07:13:49;;;;;;;;;;;15.40;92.10;;;15.89;56.08;99682.34;5035829;27;124300;-92
2023/09/24 07:16:15;;;;;;;;;;;15.40;92.10;;;15.92;56.29;99686.44;5030772;27;124082;-91
2023/09/24 07:18:44;;;;;;;;;;;15.50;92.10;;;15.94;56.36;99687.75;5034812;27;114664;-91
2023/09/24 07:21:10;;;;;;;;;;;15.50;92.20;;;15.95;56.29;99686.59;5041143;27;114873;-91
2023/09/24 07:23:36;;;;;;;;;;;15.50;92.20;;;15.99;56.14;99692.34;5043920;27;125026;-93
2023/09/24 07:26:08;;;;;;;;;;;15.50;92.10;;;16.07;56.17;99697.94;5034333;27;124239;-93
2023/09/24 07:28:35;;;;;;;;;;;15.60;92.20;;;16.12;56.01;99696.97;5032929;27;114896;-93
2023/09/24 07:31:01;;;;;;;;;;;15.70;92.10;;;16.18;56.27;99701.22;5073606;27;113772;-93
2023/09/24 07:33:27;;;;;;;;;;;15.70;92.10;;;16.25;55.59;99698.72;5066035;27;124646;-93
2023/09/24 07:35:53;;;;;;;;;;;15.80;92.00;;;16.28;55.74;99688.88;5074714;27;123791;-94
2023/09/24 07:38:20;;;;;;;;;;;15.80;91.90;;;16.23;55.60;99687.13;5027035;27;113764;-93
2023/09/24 07:40:49;;;;;;;;;;;15.80;91.90;;;16.25;55.51;99693.16;5053564;27;113375;-92
2023/09/24 07:43:16;;;;;;;;;;;15.80;92.00;;;16.29;55.47;99702.53;5024718;27;123388;-93
2023/09/24 07:45:44;;;;;;;;;;;15.80;91.90;;;16.30;55.71;99693.00;5017261;27;123990;-93
2023/09/24 07:48:13;;;;;;;;;;;15.80;91.90;;;16.32;55.81;99701.84;5024655;27;115249;-93
2023/09/24 07:50:41;;;;;;;;;;;15.90;92.00;;;16.41;55.55;99698.25;5015868;27;114661;-94
2023/09/24 07:53:07;;;;;;;;;;;15.90;92.00;;;16.48;55.53;99706.94;5019559;27;124386;-92
2023/09/24 07:55:33;;;;;;;;;;;16.00;91.90;;;16.54;55.45;99697.25;5016495;27;124813;-94
2023/09/24 07:58:02;;;;;;;;;;;16.10;91.90;;;16.59;55.05;99693.47;5036842;27;114880;-92
2023/09/24 08:00:31;;;;;;;;;;;16.10;91.80;;;16.64;54.96;99694.13;5029098;27;112837;-93
2023/09/24 08:02:57;;;;;;;;;;;16.20;91.80;;;16.69;55.02;99687.56;5026323;27;123530;-91
2023/09/24 08:05:23;;;;;;;;;;;16.20;91.70;;;16.68;54.83;99691.47;5026653;28;123622;-94
2023/09/24 08:07:50;;;;;;;;;;;16.20;91.60;;;16.70;55.08;99695.56;5029534;27;114273;-91
2023/09/24 08:10:16;;;;;;;;;;;16.20;91.70;;;16.74;55.09;99701.34;5020070;27;113201;-90
2023/09/24 08:12:42;;;;;;;;;;;16.20;91.70;;;16.78;54.88;99700.34;5035203;27;124677;-90
2023/09/24 08:15:09;;;;;;;;;;;16.30;91.60;;;16.81;54.89;99700.84;5028895;27;123383;-92
2023/09/24 08:17:35;;;;;;;;;;;16.30;91.60;;;16.86;54.88;99695.91;5023956;27;114590;-93
2023/09/24 08:20:03;;;;;;;;;;;16.40;91.60;;;16.92;54.78;99693.75;5043509;27;113743;-91
2023/09/24 08:22:29;;;;;;;;;;;16.40;91.50;;;17.00;54.63;99704.06;5023840;27;123314;-92
2023/09/24 08:24:56;;;;;;;;;;;16.50;91.60;;;17.09;54.47;99706.84;5009094;27;125868;-92
2023/09/24 08:27:22;;;;;;;;;;;16.60;91.50;;;17.17;54.47;99700.41;5021470;27;113326;-94
2023/09/24 08:29:48;;;;;;;;;;;16.70;91.50;;;17.23;54.15;99693.47;5030666;27;112799;-95
2023/09/24 08:32:15;;;;;;;;;;;16.70;91.40;;;17.27;53.87;99690.84;5027245;27;124269;-92
2023/09/24 08:34:41;;;;;;;;;;;16.70;91.40;;;17.33;53.92;99701.50;5028612;27;124477;-94
2023/09/24 08:37:07;;;;;;;;;;;16.80;91.30;;;17.37;53.88;99701.63;5026140;27;115358;-92
2023/09/24 08:39:35;;;;;;;;;;;16.90;91.20;;;17.38;53.29;99708.84;5027131;27;114318;-91
2023/09/24 08:42:02;;;;;;;;;;;16.90;90.90;;;17.37;53.32;99710.00;5036446;27;123836;-93
2023/09/24 08:44:29;;;;;;;;;;;16.90;90.90;;;17.41;53.35;99703.44;5040374;27;122814;-92
2023/09/24 08:46:56;;;;;;;;;;;17.00;90.90;;;17.48;53.16;99708.47;5054479;27;113304;-92
2023/09/24 08:49:22;;;;;;;;;;;17.00;90.70;;;17.52;53.17;99705.84;5026258;27;113825;-87
2023/09/24 08:51:49;;;;;;;;;;;17.10;90.70;;;17.57;53.09;99706.47;5059175;27;124159;-87
2023/09/24 08:54:16;;;;;;;;;;;17.10;90.70;;;17.58;52.79;99702.50;5025086;27;124301;-89
2023/09/24 08:56:45;;;;;;;;;;;17.10;90.60;;;17.60;52.51;99700.22;5036839;27;115039;-88
2023/09/24 08:59:11;;;;;;;;;;;17.10;90.30;;;17.61;52.97;99701.03;5019130;27;113811;-89
2023/09/24 09:01:38;;;;;;;;;;;17.20;90.40;;;17.70;52.64;99693.38;5066724;27;124289;-88
2023/09/24 09:04:04;;;;;;;;;;;17.20;90.40;;;17.78;52.43;99700.09;5038596;27;124121;-89
2023/09/24 09:06:34;;;;;;;;;;;17.30;90.50;;;17.90;52.31;99702.19;5035508;27;115295;-89
2023/09/24 09:09:00;;;;;;;;;;;17.40;90.40;;;17.94;51.92;99697.53;5028715;27;114162;-85
2023/09/24 09:11:45;;;;;;;;;;;17.50;90.10;;;17.98;51.77;99688.16;5018333;27;124951;-86
2023/09/24 09:14:12;;;;;;;;;;;17.50;90.00;;;18.04;51.41;99700.75;5031638;27;123777;-85
2023/09/24 09:16:57;;;;;;;;;;;17.50;89.80;;;18.06;50.51;99695.66;5054997;27;113880;-87
2023/09/24 09:19:25;;;;;;;;;;;17.60;88.80;;;18.13;50.45;99695.09;5037561;27;114384;-87
2023/09/24 09:21:51;;;;;;;;;;;17.60;88.60;;;18.16;49.95;99688.84;5029724;27;124193;-84
2023/09/24 09:24:24;;;;;;;;;;;17.60;88.00;;;18.22;49.87;99692.25;5019995;27;124060;-90
2023/09/24 09:26:57;;;;;;;;;;;17.70;87.80;;;18.29;49.91;99686.91;5030613;27;115213;-89
2023/09/24 09:29:25;;;;;;;;;;;17.80;88.00;;;18.35;49.63;99690.31;5063920;27;114798;-87
2023/09/24 09:31:52;;;;;;;;;;;17.80;87.00;;;18.39;49.07;99680.09;5027783;27;125254;-88
2023/09/24 09:34:21;;;;;;;;;;;17.80;86.30;;;18.37;48.32;99679.59;5042026;27;124036;-85
2023/09/24 09:36:47;;;;;;;;;;;17.90;85.40;;;18.37;48.53;99677.63;5027147;27;114601;-87
2023/09/24 09:39:13;;;;;;;;;;;17.90;85.30;;;18.41;48.38;99672.97;5028797;27;113676;-87
2023/09/24 09:41:45;;;;;;;;;;;18.00;85.20;;;18.46;48.14;99672.78;5014534;27;124203;-85
2023/09/24 09:44:13;;;;;;;;;;;18.00;84.90;;;18.46;47.60;99669.97;5028876;27;123891;-82
2023/09/24 09:46:45;;;;;;;;;;;18.00;84.10;;;18.47;48.40;99668.00;5010102;27;114071;-87
2023/09/24 09:49:12;;;;;;;;;;;18.10;84.60;;;18.51;48.19;99671.72;5023134;27;112915;-87
2023/09/24 09:51:47;;;;;;;;;;;18.10;84.70;;;18.57;47.83;99672.34;5018721;27;123616;-84
2023/09/24 09:54:15;;;;;;;;;;;18.10;84.30;;;18.61;47.34;99670.47;5026509;27;124595;-85
2023/09/24 09:56:42;;;;;;;;;;;18.10;83.40;;;18.64;47.21;99667.81;5024309;27;114205;-84
2023/09/24 09:59:09;;;;;;;;;;;18.20;83.40;;;18.66;46.87;99662.69;5029213;27;113701;-84
2023/09/24 10:01:38;;;;;;;;;;;18.20;82.70;;;18.65;46.58;99661.06;5016566;28;123916;-83
2023/09/24 10:04:05;;;;;;;;;;;18.30;82.20;;;18.70;47.03;99662.81;5026568;27;123827;-84
2023/09/24 10:06:37;;;;;;;;;;;18.30;82.60;;;18.76;47.09;99661.47;5036541;27;114088;-85
2023/09/24 10:09:34;;;;;;;;;;;18.40;82.80;;;18.81;47.03;99657.63;5025585;27;113341;-84
2023/09/24 10:12:06;;;;;;;;;;;18.40;82.60;;;18.90;46.63;99655.53;5031978;27;123362;-83
2023/09/24 10:14:39;;;;;;;;;;;18.50;82.40;;;18.97;46.23;99653.81;5015756;27;124130;-85
2023/09/24 10:17:20;;;;;;;;;;;18.50;81.60;;;19.06;45.40;99652.88;5025169;27;115425;-84
2023/09/24 10:20:06;;;;;;;;;;;18.60;80.80;;;19.13;44.91;99655.94;5043684;27;114069;-85
2023/09/24 10:22:34;;;;;;;;;;;18.60;80.00;;;19.20;43.49;99659.78;5048878;27;123986;-85
2023/09/24 10:25:30;;;;;;;;;;;18.70;77.60;;;19.23;43.23;99647.03;5029283;27;123579;-84
2023/09/24 10:28:11;;;;;;;;;;;18.70;76.60;;;19.28;42.61;99654.41;5039938;27;114572;-85
2023/09/24 10:31:10;;;;;;;;;;;18.80;76.00;;;19.33;42.75;99651.38;5030233;27;113939;-86
2023/09/24 10:33:59;;;;;;;;;;;18.80;76.20;;;19.38;42.26;99659.56;5053911;27;124361;-88
2023/09/24 10:36:30;;;;;;;;;;;18.90;75.80;;;19.48;42.46;99653.50;5032873;27;123749;-84
2023/09/24 10:39:06;;;;;;;;;;;19.00;75.80;;;19.58;42.39;99652.16;5036937;27;114069;-87
2023/09/24 10:41:34;;;;;;;;;;;19.10;75.70;;;19.70;42.07;99640.19;5026250;27;113971;-84
2023/09/24 10:44:22;;;;;;;;;;;19.20;75.10;;;19.79;41.77;99641.66;5005766;27;124423;-83
2023/09/24 10:46:51;;;;;;;;;;;19.30;74.40;;;19.91;41.14;99634.38;5019192;27;125885;-85
2023/09/24 10:49:22;;;;;;;;;;;19.40;73.70;;;20.00;40.55;99635.88;5018789;28;113854;-83
2023/09/24 10:51:48;;;;;;;;;;;19.50;72.90;;;20.08;40.04;99642.53;5031184;27;113819;-83
2023/09/24 10:54:16;;;;;;;;;;;19.50;72.00;;;20.15;39.92;99642.75;5034749;27;122301;-81
2023/09/24 10:56:47;;;;;;;;;;;19.60;70.90;;;20.26;38.96;99643.06;5026284;27;124154;-83
2023/09/24 10:59:14;;;;;;;;;;;19.70;69.90;;;20.33;37.72;99646.03;5032005;27;114049;-82
2023/09/24 11:01:42;;;;;;;;;;;19.80;67.80;;;20.41;38.28;99639.47;5053985;27;113871;-81
2023/09/24 11:04:11;;;;;;;;;;;19.80;68.30;;;20.49;38.14;99641.28;5029720;27;123600;-81
2023/09/24 11:06:37;;;;;;;;;;;19.90;68.00;;;20.56;37.30;99640.72;5055048;27;124365;-83
2023/09/24 11:09:18;;;;;;;;;;;20.00;67.00;;;20.64;37.89;99636.13;5059758;27;115046;-82
2023/09/24 11:11:45;;;;;;;;;;;20.10;66.90;;;20.70;37.88;99646.72;5017798;27;114889;-82
2023/09/24 11:14:22;;;;;;;;;;;20.10;66.90;;;20.77;38.11;99631.22;5013876;27;124126;-81
2023/09/24 11:16:53;;;;;;;;;;;20.20;67.90;;;20.88;38.17;99626.72;5044603;27;123593;-82
2023/09/24 11:19:42;;;;;;;;;;;20.30;67.80;;;21.01;37.38;99628.28;5025199;27;114240;-82